createdAt,value
2023-04-16T00:00:56.292Z,84.85
2023-04-16T00:01:56.400Z,82.31
2023-04-16T00:02:56.555Z,80.20
2023-04-16T00:03:56.642Z,82.50
2023-04-16T00:04:56.463Z,80.40
2023-04-16T00:05:56.521Z,82.11
2023-04-16T00:06:56.468Z,84.46
2023-04-16T00:07:56.480Z,83.50
2023-04-16T00:08:56.514Z,79.47
2023-04-16T00:09:56.532Z,83.68
2023-04-16T00:10:56.580Z,75.12
2023-04-16T00:11:58.414Z,77.77
2023-04-16T00:12:56.681Z,78.98
2023-04-16T00:13:56.670Z,73.98
2023-04-16T00:14:56.883Z,80.41
2023-04-16T00:15:56.774Z,81.81
2023-04-16T00:16:56.838Z,81.93
2023-04-16T00:17:56.929Z,74.94
2023-04-16T00:18:56.883Z,84.56
2023-04-16T00:19:56.935Z,78.97
2023-04-16T00:20:57.058Z,77.01
2023-04-16T00:21:57.294Z,68.35
2023-04-16T00:22:57.087Z,72.93
2023-04-16T00:23:57.102Z,78.40
2023-04-16T00:24:57.113Z,70.23
2023-04-16T00:25:57.185Z,81.86
2023-04-16T00:26:57.239Z,70.37
2023-04-16T00:27:57.258Z,69.73
2023-04-16T00:28:57.273Z,69.32
2023-04-16T00:29:57.295Z,73.86
2023-04-16T00:30:57.380Z,71.56
2023-04-16T00:31:57.412Z,62.73
2023-04-16T00:32:57.443Z,70.32
2023-04-16T00:33:57.520Z,72.41
2023-04-16T00:34:57.549Z,74.92
2023-04-16T00:35:57.569Z,74.01
2023-04-16T00:36:57.594Z,73.56
2023-04-16T00:37:57.607Z,76.48
2023-04-16T00:38:57.619Z,73.70
2023-04-16T00:39:57.676Z,79.71
2023-04-16T00:40:57.679Z,74.00
2023-04-16T00:41:57.844Z,66.79
2023-04-16T00:42:57.742Z,72.81
2023-04-16T00:43:57.776Z,70.32
2023-04-16T00:44:57.764Z,82.59
2023-04-16T00:45:57.845Z,84.20
2023-04-16T00:46:57.838Z,77.21
2023-04-16T00:47:59.938Z,82.05
2023-04-16T00:48:58.108Z,72.74
2023-04-16T00:49:58.094Z,74.29
2023-04-16T00:50:58.161Z,72.68
2023-04-16T00:51:58.298Z,72.34
2023-04-16T00:52:58.203Z,72.73
2023-04-16T00:53:58.220Z,72.32
2023-04-16T00:54:58.242Z,78.59
2023-04-16T00:55:58.277Z,66.34
2023-04-16T00:56:58.289Z,67.80
2023-04-16T00:57:58.341Z,77.51
2023-04-16T00:58:58.378Z,68.24
2023-04-16T00:59:58.379Z,75.35
2023-04-16T01:00:58.456Z,69.95
2023-04-16T01:01:58.640Z,71.76
2023-04-16T01:02:58.651Z,75.31
2023-04-16T01:03:58.727Z,67.80
2023-04-16T01:04:58.673Z,62.61
2023-04-16T01:05:58.761Z,66.24
2023-04-16T01:06:58.816Z,73.62
2023-04-16T01:07:58.848Z,65.19
2023-04-16T01:08:58.915Z,66.32
2023-04-16T01:09:58.991Z,77.03
2023-04-16T01:10:59.018Z,68.08
2023-04-16T01:11:59.085Z,64.23
2023-04-16T01:12:59.154Z,60.15
2023-04-16T01:13:59.230Z,61.40
2023-04-16T01:14:59.240Z,65.86
2023-04-16T01:15:59.318Z,59.93
2023-04-16T01:16:59.330Z,70.14
2023-04-16T01:17:59.401Z,69.37
2023-04-16T01:18:59.466Z,65.49
2023-04-16T01:19:59.483Z,71.86
2023-04-16T01:20:59.519Z,68.29
2023-04-16T01:21:59.587Z,61.62
2023-04-16T01:22:59.586Z,64.06
2023-04-16T01:23:59.647Z,68.95
2023-04-16T01:24:59.668Z,67.78
2023-04-16T01:25:59.802Z,60.74
2023-04-16T01:26:59.811Z,67.06
2023-04-16T01:27:59.770Z,69.55
2023-04-16T01:28:59.873Z,69.47
2023-04-16T01:29:59.874Z,66.24
2023-04-16T01:30:59.917Z,59.45
2023-04-16T01:31:59.950Z,68.22
2023-04-16T01:33:00.060Z,60.20
2023-04-16T01:34:00.001Z,55.19
2023-04-16T01:35:00.025Z,67.41
2023-04-16T01:36:00.081Z,70.82
2023-04-16T01:37:00.159Z,65.81
2023-04-16T01:38:00.164Z,69.47
2023-04-16T01:39:00.224Z,64.29
2023-04-16T01:40:00.225Z,53.85
2023-04-16T01:41:00.296Z,62.18
2023-04-16T01:42:00.274Z,55.32
2023-04-16T01:43:00.311Z,66.26
2023-04-16T01:44:00.313Z,63.70
2023-04-16T01:45:00.330Z,57.25
2023-04-16T01:46:00.368Z,65.83
2023-04-16T01:47:00.466Z,63.56
2023-04-16T01:48:00.460Z,65.17
2023-04-16T01:49:00.469Z,65.67
2023-04-16T01:50:00.448Z,61.25
2023-04-16T01:51:00.479Z,57.79
2023-04-16T01:52:00.491Z,59.83
2023-04-16T01:53:00.500Z,70.42
2023-04-16T01:54:00.567Z,67.28
2023-04-16T01:55:00.556Z,65.70
2023-04-16T01:56:00.576Z,70.02
2023-04-16T01:57:00.582Z,72.43
2023-04-16T01:58:00.558Z,73.51
2023-04-16T01:59:00.576Z,66.76
2023-04-16T02:00:00.596Z,78.19
2023-04-16T02:01:00.749Z,84.93
2023-04-16T02:02:00.740Z,84.25
2023-04-16T02:03:00.868Z,85.58
2023-04-16T02:04:00.701Z,82.97
2023-04-16T02:05:00.640Z,78.76
2023-04-16T02:06:00.653Z,75.14
2023-04-16T02:07:00.701Z,78.78
2023-04-16T02:08:00.736Z,78.93
2023-04-16T02:09:00.777Z,82.33
2023-04-16T02:10:00.799Z,76.07
2023-04-16T02:11:00.790Z,78.67
2023-04-16T02:12:00.824Z,74.85
2023-04-16T02:13:00.898Z,79.33
2023-04-16T02:14:00.875Z,79.68
2023-04-16T02:15:00.906Z,79.79
2023-04-16T02:16:00.932Z,77.97
2023-04-16T02:17:00.946Z,83.85
2023-04-16T02:18:01.075Z,83.54
2023-04-16T02:19:01.000Z,79.88
2023-04-16T02:20:00.969Z,76.01
2023-04-16T02:21:00.989Z,79.23
2023-04-16T02:22:00.998Z,75.31
2023-04-16T02:23:01.010Z,77.98
2023-04-16T02:24:00.979Z,79.97
2023-04-16T02:25:01.001Z,83.68
2023-04-16T02:26:00.983Z,76.13
2023-04-16T02:27:00.978Z,73.27
2023-04-16T02:28:01.016Z,79.68
2023-04-16T02:29:01.017Z,78.40
2023-04-16T02:30:01.038Z,86.00
2023-04-16T02:31:01.009Z,83.89
2023-04-16T02:32:01.101Z,82.38
2023-04-16T02:33:01.111Z,71.66
2023-04-16T02:34:00.982Z,81.53
2023-04-16T02:35:00.995Z,79.65
2023-04-16T02:36:01.004Z,71.44
2023-04-16T02:37:00.984Z,86.76
2023-04-16T02:38:01.032Z,81.75
2023-04-16T02:39:01.014Z,66.06
2023-04-16T02:40:01.008Z,75.67
2023-04-16T02:41:01.027Z,77.69
2023-04-16T02:42:01.081Z,78.58
2023-04-16T02:43:01.072Z,81.91
2023-04-16T02:44:01.055Z,77.29
2023-04-16T02:45:01.095Z,78.36
2023-04-16T02:46:01.157Z,72.61
2023-04-16T02:47:01.195Z,87.28
2023-04-16T02:48:01.257Z,85.05
2023-04-16T02:49:01.182Z,73.48
2023-04-16T02:50:01.190Z,74.74
2023-04-16T02:51:01.191Z,82.07
2023-04-16T02:52:01.229Z,77.07
2023-04-16T02:53:01.280Z,78.48
2023-04-16T02:54:01.320Z,76.11
2023-04-16T02:55:01.337Z,76.28
2023-04-16T02:56:01.317Z,79.64
2023-04-16T02:57:01.379Z,73.55
2023-04-16T02:58:01.509Z,72.55
2023-04-16T02:59:01.433Z,78.15
2023-04-16T03:00:01.491Z,76.29
2023-04-16T03:01:01.505Z,67.20
2023-04-16T03:02:01.567Z,73.25
2023-04-16T03:03:01.656Z,74.29
2023-04-16T03:04:01.731Z,73.28
2023-04-16T03:05:01.580Z,81.74
2023-04-16T03:06:01.601Z,77.33
2023-04-16T03:07:01.637Z,69.22
2023-04-16T03:08:01.690Z,69.98
2023-04-16T03:09:01.664Z,80.24
2023-04-16T03:10:01.664Z,83.47
2023-04-16T03:11:01.678Z,88.67
2023-04-16T03:12:01.736Z,86.41
2023-04-16T03:13:01.769Z,74.33
2023-04-16T03:14:01.775Z,81.89
2023-04-16T03:15:01.776Z,85.98
2023-04-16T03:16:01.977Z,75.48
2023-04-16T03:17:01.893Z,82.93
2023-04-16T03:18:01.925Z,73.88
2023-04-16T03:19:01.931Z,78.61
2023-04-16T03:20:01.956Z,74.58
2023-04-16T03:21:02.031Z,74.34
2023-04-16T03:22:02.056Z,68.34
2023-04-16T03:23:02.019Z,72.98
2023-04-16T03:24:02.042Z,77.82
2023-04-16T03:25:02.030Z,74.10
2023-04-16T03:26:02.047Z,80.63
2023-04-16T03:27:02.042Z,78.90
2023-04-16T03:28:02.037Z,73.38
2023-04-16T03:29:02.046Z,87.26
2023-04-16T03:30:02.096Z,81.61
2023-04-16T03:31:02.082Z,81.08
2023-04-16T03:32:02.072Z,74.09
2023-04-16T03:33:02.148Z,73.65
2023-04-16T03:34:02.112Z,66.97
2023-04-16T03:35:02.137Z,70.70
2023-04-16T03:36:02.107Z,73.53
2023-04-16T03:37:02.129Z,78.03
2023-04-16T03:38:02.115Z,76.22
2023-04-16T03:39:02.167Z,69.85
2023-04-16T03:40:02.136Z,78.55
2023-04-16T03:41:02.142Z,73.43
2023-04-16T03:42:02.230Z,74.68
2023-04-16T03:43:02.187Z,79.14
2023-04-16T03:44:02.353Z,72.85
2023-04-16T03:45:02.186Z,77.25
2023-04-16T03:46:02.220Z,76.54
2023-04-16T03:47:02.256Z,82.25
2023-04-16T03:48:02.245Z,83.35
2023-04-16T03:49:02.238Z,76.74
2023-04-16T03:50:02.272Z,72.77
2023-04-16T03:51:02.230Z,74.71
2023-04-16T03:52:02.250Z,72.63
2023-04-16T03:53:02.303Z,72.98
2023-04-16T03:54:02.259Z,71.52
2023-04-16T03:55:02.274Z,69.33
2023-04-16T03:56:02.256Z,73.75
2023-04-16T03:57:02.324Z,75.59
2023-04-16T03:58:02.268Z,72.23
2023-04-16T03:59:02.329Z,77.92
2023-04-16T04:00:02.289Z,78.39
2023-04-16T04:01:02.361Z,67.67
2023-04-16T04:02:02.444Z,71.38
2023-04-16T04:03:02.690Z,77.49
2023-04-16T04:04:02.572Z,76.34
2023-04-16T04:05:02.626Z,76.18
2023-04-16T04:06:02.560Z,75.84
2023-04-16T04:07:02.602Z,77.36
2023-04-16T04:08:02.636Z,73.69
2023-04-16T04:09:02.619Z,73.88
2023-04-16T04:10:02.656Z,80.17
2023-04-16T04:11:02.638Z,82.06
2023-04-16T04:12:02.679Z,77.29
2023-04-16T04:13:02.687Z,74.43
2023-04-16T04:14:02.656Z,85.93
2023-04-16T04:15:02.686Z,79.23
2023-04-16T04:16:02.684Z,70.77
2023-04-16T04:17:02.686Z,75.25
2023-04-16T04:18:02.772Z,78.95
2023-04-16T04:19:02.700Z,79.30
2023-04-16T04:20:02.738Z,76.38
2023-04-16T04:21:02.733Z,77.25
2023-04-16T04:22:02.751Z,87.34
2023-04-16T04:23:02.779Z,88.07
2023-04-16T04:24:02.808Z,79.92
2023-04-16T04:25:02.802Z,75.95
2023-04-16T04:26:02.776Z,72.12
2023-04-16T04:27:02.791Z,70.19
2023-04-16T04:28:02.836Z,75.31
2023-04-16T04:29:02.862Z,81.77
2023-04-16T04:30:02.850Z,86.24
2023-04-16T04:31:02.864Z,82.83
2023-04-16T04:32:02.973Z,85.24
2023-04-16T04:33:02.896Z,90.37
2023-04-16T04:34:02.872Z,92.70
2023-04-16T04:35:02.893Z,79.48
2023-04-16T04:36:02.934Z,90.86
2023-04-16T04:37:02.873Z,83.38
2023-04-16T04:38:03.004Z,83.71
2023-04-16T04:39:02.925Z,81.50
2023-04-16T04:40:02.941Z,79.06
2023-04-16T04:41:03.031Z,86.14
2023-04-16T04:42:02.995Z,76.98
2023-04-16T04:43:03.010Z,80.55
2023-04-16T04:44:03.017Z,78.62
2023-04-16T04:45:02.982Z,73.36
2023-04-16T04:46:03.028Z,78.47
2023-04-16T04:47:03.001Z,75.77
2023-04-16T04:48:03.052Z,75.34
2023-04-16T04:49:03.363Z,79.89
2023-04-16T04:50:03.006Z,82.91
2023-04-16T04:51:04.715Z,83.68
2023-04-16T04:52:03.003Z,80.57
2023-04-16T04:53:03.010Z,88.06
2023-04-16T04:54:03.016Z,79.76
2023-04-16T04:55:03.042Z,85.92
2023-04-16T04:56:12.490Z,91.08
2023-04-16T04:57:04.013Z,91.09
2023-04-16T04:58:03.010Z,89.42
2023-04-16T04:59:03.068Z,85.57
2023-04-16T05:00:02.993Z,83.87
2023-04-16T05:01:02.984Z,89.35
2023-04-16T05:02:02.996Z,82.75
2023-04-16T05:03:03.062Z,85.70
2023-04-16T05:04:03.010Z,88.03
2023-04-16T05:05:03.105Z,87.15
2023-04-16T05:06:02.999Z,91.24
2023-04-16T05:07:02.957Z,82.46
2023-04-16T05:08:02.938Z,84.20
2023-04-16T05:09:02.956Z,91.58
2023-04-16T05:10:02.975Z,92.47
2023-04-16T05:11:02.929Z,100.50
2023-04-16T05:12:02.953Z,96.96
2023-04-16T05:13:02.936Z,87.73
2023-04-16T05:14:02.934Z,85.68
2023-04-16T05:15:02.938Z,92.02
2023-04-16T05:16:03.012Z,82.51
2023-04-16T05:17:03.078Z,79.94
2023-04-16T05:18:03.146Z,83.35
2023-04-16T05:19:03.034Z,84.18
2023-04-16T05:20:03.126Z,76.00
2023-04-16T05:21:03.054Z,83.01
2023-04-16T05:22:03.047Z,89.28
2023-04-16T05:23:03.076Z,75.90
2023-04-16T05:24:03.079Z,85.08
2023-04-16T05:25:03.076Z,84.69
2023-04-16T05:26:03.298Z,79.30
2023-04-16T05:27:03.082Z,76.93
2023-04-16T05:28:03.111Z,80.33
2023-04-16T05:29:03.081Z,81.37
2023-04-16T05:30:03.117Z,86.59
2023-04-16T05:31:03.172Z,91.59
2023-04-16T05:32:03.207Z,89.45
2023-04-16T05:33:03.105Z,85.26
2023-04-16T05:34:03.115Z,75.47
2023-04-16T05:35:03.120Z,82.57
2023-04-16T05:36:03.166Z,88.76
2023-04-16T05:37:03.140Z,73.93
2023-04-16T05:38:03.148Z,78.09
2023-04-16T05:39:03.258Z,86.52
2023-04-16T05:40:03.172Z,80.28
2023-04-16T05:41:03.154Z,81.98
2023-04-16T05:42:03.165Z,74.73
2023-04-16T05:43:03.183Z,74.33
2023-04-16T05:44:03.192Z,74.74
2023-04-16T05:45:03.154Z,78.68
2023-04-16T05:46:03.211Z,76.58
2023-04-16T05:47:03.161Z,73.51
2023-04-16T05:48:03.193Z,72.05
2023-04-16T05:49:03.178Z,81.11
2023-04-16T05:50:03.144Z,84.50
2023-04-16T05:51:03.174Z,81.25
2023-04-16T05:52:03.183Z,76.83
2023-04-16T05:53:03.150Z,78.33
2023-04-16T05:54:03.292Z,83.98
2023-04-16T05:55:03.182Z,79.04
2023-04-16T05:56:03.198Z,79.73
2023-04-16T05:57:03.202Z,74.02
2023-04-16T05:58:03.182Z,75.34
2023-04-16T05:59:03.225Z,85.52
2023-04-16T06:00:03.224Z,88.32
2023-04-16T06:01:03.211Z,79.41
2023-04-16T06:02:03.293Z,72.47
2023-04-16T06:03:03.432Z,77.91
2023-04-16T06:04:03.675Z,74.07
2023-04-16T06:05:03.269Z,75.60
2023-04-16T06:06:03.301Z,83.31
2023-04-16T06:07:03.209Z,81.24
2023-04-16T06:08:03.238Z,81.44
2023-04-16T06:09:03.273Z,83.75
2023-04-16T06:10:03.243Z,74.20
2023-04-16T06:11:03.399Z,75.83
2023-04-16T06:12:03.321Z,74.48
2023-04-16T06:13:03.296Z,84.05
2023-04-16T06:14:03.331Z,80.58
2023-04-16T06:15:03.367Z,76.84
2023-04-16T06:16:03.369Z,79.30
2023-04-16T06:17:03.313Z,74.03
2023-04-16T06:18:03.439Z,74.81
2023-04-16T06:19:03.338Z,72.29
2023-04-16T06:20:03.359Z,75.41
2023-04-16T06:21:03.361Z,75.98
2023-04-16T06:22:03.394Z,77.42
2023-04-16T06:23:03.400Z,70.18
2023-04-16T06:24:03.425Z,66.93
2023-04-16T06:25:03.444Z,65.69
2023-04-16T06:26:03.428Z,71.95
2023-04-16T06:27:03.589Z,69.96
2023-04-16T06:28:03.444Z,69.32
2023-04-16T06:29:03.456Z,62.95
2023-04-16T06:30:03.478Z,72.22
2023-04-16T06:31:03.475Z,73.57
2023-04-16T06:32:03.519Z,70.45
2023-04-16T06:33:03.518Z,65.42
2023-04-16T06:34:03.500Z,71.19
2023-04-16T06:35:03.536Z,63.52
2023-04-16T06:36:03.535Z,71.60
2023-04-16T06:37:03.547Z,74.62
2023-04-16T06:38:03.701Z,70.81
2023-04-16T06:39:03.581Z,69.48
2023-04-16T06:40:03.549Z,72.43
2023-04-16T06:41:03.536Z,66.68
2023-04-16T06:42:03.562Z,65.07
2023-04-16T06:43:03.532Z,76.88
2023-04-16T06:44:03.535Z,65.63
2023-04-16T06:45:03.567Z,65.55
2023-04-16T06:46:03.540Z,75.35
2023-04-16T06:47:03.658Z,70.07
2023-04-16T06:48:03.602Z,75.76
2023-04-16T06:49:03.536Z,81.21
2023-04-16T06:50:03.550Z,81.31
2023-04-16T06:51:03.573Z,75.31
2023-04-16T06:52:05.833Z,64.04
2023-04-16T06:53:03.646Z,63.45
2023-04-16T06:54:03.664Z,67.53
2023-04-16T06:55:03.706Z,62.14
2023-04-16T06:56:03.704Z,68.88
2023-04-16T06:57:03.742Z,75.44
2023-04-16T06:58:03.742Z,76.55
2023-04-16T06:59:03.770Z,74.76
2023-04-16T07:00:03.925Z,65.00
2023-04-16T07:01:03.853Z,71.14
2023-04-16T07:02:03.767Z,78.18
2023-04-16T07:03:04.102Z,67.22
2023-04-16T07:04:04.006Z,72.81
2023-04-16T07:05:03.804Z,68.79
2023-04-16T07:06:03.802Z,65.88
2023-04-16T07:07:03.843Z,72.52
2023-04-16T07:08:03.815Z,69.89
2023-04-16T07:09:03.919Z,62.14
2023-04-16T07:10:03.807Z,68.62
2023-04-16T07:11:03.834Z,83.85
2023-04-16T07:12:03.810Z,80.64
2023-04-16T07:13:03.843Z,76.81
2023-04-16T07:14:03.948Z,75.79
2023-04-16T07:15:03.800Z,88.77
2023-04-16T07:16:03.825Z,81.22
2023-04-16T07:17:03.834Z,85.44
2023-04-16T07:18:03.895Z,90.17
2023-04-16T07:19:03.893Z,81.74
2023-04-16T07:20:03.856Z,78.94
2023-04-16T07:21:03.862Z,82.57
2023-04-16T07:22:03.912Z,78.27
2023-04-16T07:23:03.892Z,84.58
2023-04-16T07:24:03.923Z,73.78
2023-04-16T07:25:03.891Z,76.83
2023-04-16T07:26:03.897Z,79.56
2023-04-16T07:27:03.941Z,84.22
2023-04-16T07:28:03.899Z,69.83
2023-04-16T07:29:03.904Z,64.75
2023-04-16T07:30:03.974Z,61.38
2023-04-16T07:31:03.940Z,75.47
2023-04-16T07:32:04.039Z,71.75
2023-04-16T07:33:04.025Z,77.31
2023-04-16T07:34:03.971Z,60.26
2023-04-16T07:35:03.976Z,53.87
2023-04-16T07:36:04.000Z,60.63
2023-04-16T07:37:04.054Z,61.04
2023-04-16T07:38:04.053Z,61.22
2023-04-16T07:39:04.044Z,68.81
2023-04-16T07:40:04.058Z,66.24
2023-04-16T07:41:04.135Z,65.73
2023-04-16T07:42:04.053Z,62.59
2023-04-16T07:43:04.077Z,67.60
2023-04-16T07:44:04.069Z,55.70
2023-04-16T07:45:04.090Z,59.33
2023-04-16T07:46:04.132Z,60.88
2023-04-16T07:47:05.564Z,50.53
2023-04-16T07:48:04.164Z,50.73
2023-04-16T07:49:04.064Z,46.71
2023-04-16T07:50:04.096Z,59.53
2023-04-16T07:51:04.078Z,52.93
2023-04-16T07:52:04.086Z,54.19
2023-04-16T07:53:04.095Z,37.33
2023-04-16T07:54:04.071Z,37.72
2023-04-16T07:55:04.097Z,43.68
2023-04-16T07:56:04.073Z,45.99
2023-04-16T07:57:04.084Z,43.17
2023-04-16T07:58:04.072Z,38.93
2023-04-16T07:59:18.501Z,43.50
2023-04-16T08:00:05.079Z,43.89
2023-04-16T08:01:04.070Z,44.67
2023-04-16T08:02:04.128Z,44.30
2023-04-16T08:03:04.241Z,49.12
2023-04-16T08:04:04.113Z,55.98
2023-04-16T08:05:04.045Z,55.89
2023-04-16T08:06:04.049Z,52.35
2023-04-16T08:07:04.017Z,49.20
2023-04-16T08:08:04.028Z,55.14
2023-04-16T08:09:04.031Z,46.42
2023-04-16T08:10:04.023Z,44.25
2023-04-16T08:11:03.989Z,42.38
2023-04-16T08:12:04.000Z,48.75
2023-04-16T08:13:03.971Z,44.44
2023-04-16T08:14:03.996Z,46.97
2023-04-16T08:15:03.962Z,40.36
2023-04-16T08:16:04.002Z,40.81
2023-04-16T08:17:03.988Z,47.74
2023-04-16T08:18:03.983Z,43.37
2023-04-16T08:19:03.936Z,44.48
2023-04-16T08:20:03.949Z,41.66
2023-04-16T08:21:03.931Z,42.39
2023-04-16T08:22:03.919Z,32.47
2023-04-16T08:23:03.906Z,44.14
2023-04-16T08:24:03.895Z,46.11
2023-04-16T08:25:03.938Z,49.37
2023-04-16T08:26:03.894Z,38.55
2023-04-16T08:27:15.422Z,33.51
2023-04-16T08:28:04.891Z,33.60
2023-04-16T08:29:03.907Z,31.27
2023-04-16T08:30:03.856Z,33.66
2023-04-16T08:31:03.904Z,37.04
2023-04-16T08:32:03.886Z,37.01
2023-04-16T08:33:03.894Z,36.14
2023-04-16T08:34:03.881Z,32.66
2023-04-16T08:35:03.834Z,28.45
2023-04-16T08:36:03.836Z,30.22
2023-04-16T08:37:03.827Z,40.82
2023-04-16T08:38:03.804Z,42.33
2023-04-16T08:39:03.816Z,51.61
2023-04-16T08:40:03.822Z,44.97
2023-04-16T08:41:03.824Z,45.82
2023-04-16T08:42:03.822Z,34.91
2023-04-16T08:43:03.774Z,27.05
2023-04-16T08:44:03.793Z,30.79
2023-04-16T08:45:03.803Z,36.26
2023-04-16T08:46:03.757Z,50.24
2023-04-16T08:47:03.860Z,31.65
2023-04-16T08:48:03.813Z,44.18
2023-04-16T08:49:03.795Z,48.49
2023-04-16T08:50:03.792Z,38.42
2023-04-16T08:51:03.766Z,38.42
2023-04-16T08:52:03.785Z,42.58
2023-04-16T08:53:03.806Z,44.91
2023-04-16T08:54:03.815Z,38.10
2023-04-16T08:55:03.814Z,33.09
2023-04-16T08:56:03.826Z,43.40
2023-04-16T08:57:03.858Z,39.67
2023-04-16T08:58:03.866Z,34.87
2023-04-16T08:59:03.902Z,46.50
2023-04-16T09:00:03.875Z,42.89
2023-04-16T09:01:03.962Z,42.30
2023-04-16T09:02:04.071Z,36.89
2023-04-16T09:03:04.100Z,39.50
2023-04-16T09:04:04.038Z,40.38
2023-04-16T09:05:03.916Z,60.84
2023-04-16T09:06:03.920Z,53.76
2023-04-16T09:07:03.937Z,43.33
2023-04-16T09:08:03.963Z,28.30
2023-04-16T09:09:03.969Z,26.35
2023-04-16T09:10:03.970Z,32.98
2023-04-16T09:11:03.982Z,42.43
2023-04-16T09:12:03.992Z,30.76
2023-04-16T09:13:03.999Z,25.00
2023-04-16T09:14:03.988Z,38.46
2023-04-16T09:15:04.023Z,39.19
2023-04-16T09:16:04.086Z,43.46
2023-04-16T09:17:04.013Z,41.24
2023-04-16T09:18:04.043Z,39.68
2023-04-16T09:19:03.996Z,49.00
2023-04-16T09:20:04.018Z,50.30
2023-04-16T09:21:04.060Z,50.33
2023-04-16T09:22:04.033Z,40.63
2023-04-16T09:23:04.023Z,50.27
2023-04-16T09:24:04.036Z,40.23
2023-04-16T09:25:04.062Z,50.49
2023-04-16T09:26:04.043Z,50.78
2023-04-16T09:27:04.071Z,57.46
2023-04-16T09:28:04.061Z,49.15
2023-04-16T09:29:04.076Z,48.34
2023-04-16T09:30:04.079Z,31.39
2023-04-16T09:31:04.070Z,46.69
2023-04-16T09:32:04.130Z,45.98
2023-04-16T09:33:04.095Z,51.80
2023-04-16T09:34:04.070Z,46.36
2023-04-16T09:35:04.049Z,53.56
2023-04-16T09:36:04.062Z,59.01
2023-04-16T09:37:04.093Z,52.06
2023-04-16T09:38:04.048Z,55.95
2023-04-16T09:39:04.102Z,63.65
2023-04-16T09:40:04.077Z,51.70
2023-04-16T09:41:04.057Z,60.74
2023-04-16T09:42:04.073Z,69.66
2023-04-16T09:43:04.039Z,63.56
2023-04-16T09:44:04.063Z,59.66
2023-04-16T09:45:05.677Z,55.74
2023-04-16T09:46:08.299Z,46.43
2023-04-16T09:47:04.105Z,46.33
2023-04-16T09:48:04.200Z,47.48
2023-04-16T09:49:04.117Z,52.81
2023-04-16T09:50:04.057Z,51.99
2023-04-16T09:51:04.031Z,55.84
2023-04-16T09:52:04.542Z,65.65
2023-04-16T09:53:04.020Z,65.33
2023-04-16T09:54:04.013Z,58.97
2023-04-16T09:55:04.007Z,61.92
2023-04-16T09:56:04.040Z,80.16
2023-04-16T09:57:03.987Z,69.09
2023-04-16T09:58:03.966Z,68.69
2023-04-16T09:59:03.978Z,65.98
2023-04-16T10:00:04.007Z,70.26
2023-04-16T10:01:03.999Z,67.59
2023-04-16T10:02:15.649Z,75.43
2023-04-16T10:03:05.075Z,75.75
2023-04-16T10:04:04.018Z,76.11
2023-04-16T10:05:03.940Z,74.74
2023-04-16T10:06:03.952Z,73.73
2023-04-16T10:07:03.926Z,76.39
2023-04-16T10:08:03.946Z,64.06
2023-04-16T10:09:04.007Z,68.53
2023-04-16T10:10:03.919Z,72.00
2023-04-16T10:11:03.883Z,61.96
2023-04-16T10:12:03.891Z,56.41
2023-04-16T10:13:03.873Z,57.44
2023-04-16T10:14:03.895Z,82.34
2023-04-16T10:15:03.872Z,74.43
2023-04-16T10:16:03.886Z,69.38
2023-04-16T10:17:03.868Z,65.61
2023-04-16T10:18:03.863Z,52.28
2023-04-16T10:19:03.836Z,50.21
2023-04-16T10:20:03.825Z,55.51
2023-04-16T10:21:03.870Z,68.96
2023-04-16T10:22:03.847Z,59.97
2023-04-16T10:23:03.811Z,74.19
2023-04-16T10:24:03.849Z,75.21
2023-04-16T10:25:03.823Z,60.80
2023-04-16T10:26:03.845Z,58.49
2023-04-16T10:27:03.827Z,60.78
2023-04-16T10:28:03.848Z,62.09
2023-04-16T10:29:03.824Z,62.00
2023-04-16T10:30:03.846Z,66.28
2023-04-16T10:31:03.862Z,61.37
2023-04-16T10:32:03.828Z,75.04
2023-04-16T10:33:03.904Z,59.95
2023-04-16T10:34:03.842Z,54.77
2023-04-16T10:35:03.847Z,38.36
2023-04-16T10:36:07.447Z,53.72
2023-04-16T10:37:03.883Z,54.01
2023-04-16T10:38:03.833Z,54.53
2023-04-16T10:39:03.834Z,59.76
2023-04-16T10:40:03.900Z,61.43
2023-04-16T10:41:03.835Z,59.28
2023-04-16T10:42:03.797Z,60.08
2023-04-16T10:43:03.803Z,53.99
2023-04-16T10:44:03.803Z,52.06
2023-04-16T10:45:03.801Z,49.33
2023-04-16T10:46:03.809Z,51.97
2023-04-16T10:47:03.793Z,59.15
2023-04-16T10:48:03.769Z,63.97
2023-04-16T10:49:03.788Z,51.28
2023-04-16T10:50:03.754Z,58.36
2023-04-16T10:51:03.745Z,47.42
2023-04-16T10:52:03.748Z,64.94
2023-04-16T10:53:03.743Z,57.79
2023-04-16T10:54:04.017Z,53.25
2023-04-16T10:55:03.713Z,44.74
2023-04-16T10:56:03.716Z,34.53
2023-04-16T10:57:04.396Z,47.96
2023-04-16T10:58:03.691Z,36.01
2023-04-16T10:59:03.719Z,40.39
2023-04-16T11:00:03.693Z,37.42
2023-04-16T11:01:03.694Z,37.47
2023-04-16T11:02:03.764Z,31.34
2023-04-16T11:03:03.819Z,26.93
2023-04-16T11:04:03.899Z,32.68
2023-04-16T11:05:03.817Z,26.47
2023-04-16T11:06:03.743Z,37.58
2023-04-16T11:07:03.659Z,54.50
2023-04-16T11:08:03.633Z,37.09
2023-04-16T11:09:03.646Z,35.99
2023-04-16T11:10:03.633Z,49.31
2023-04-16T11:11:03.622Z,48.80
2023-04-16T11:12:03.638Z,45.11
2023-04-16T11:13:03.614Z,42.96
2023-04-16T11:14:03.610Z,52.74
2023-04-16T11:15:03.595Z,54.20
2023-04-16T11:16:03.622Z,37.79
2023-04-16T11:17:03.591Z,41.40
2023-04-16T11:18:03.679Z,28.59
2023-04-16T11:19:03.557Z,51.41
2023-04-16T11:20:03.646Z,40.31
2023-04-16T11:21:04.542Z,40.36
2023-04-16T11:22:03.545Z,35.72
2023-04-16T11:23:03.528Z,41.66
2023-04-16T11:24:03.535Z,33.17
2023-04-16T11:25:03.518Z,41.58
2023-04-16T11:26:03.511Z,32.11
2023-04-16T11:27:03.500Z,26.00
2023-04-16T11:28:03.518Z,45.07
2023-04-16T11:29:03.495Z,45.49
2023-04-16T11:30:03.512Z,50.00
2023-04-16T11:31:03.499Z,40.72
2023-04-16T11:32:03.527Z,41.54
2023-04-16T11:33:03.560Z,46.57
2023-04-16T11:34:03.542Z,43.35
2023-04-16T11:35:03.545Z,47.22
2023-04-16T11:36:03.579Z,41.33
2023-04-16T11:37:03.535Z,33.82
2023-04-16T11:38:03.551Z,47.09
2023-04-16T11:39:03.646Z,36.41
2023-04-16T11:40:03.589Z,40.17
2023-04-16T11:41:03.568Z,23.66
2023-04-16T11:42:03.651Z,24.67
2023-04-16T11:43:03.557Z,33.50
2023-04-16T11:44:03.615Z,52.22
2023-04-16T11:45:03.554Z,59.39
2023-04-16T11:46:10.337Z,46.44
2023-04-16T11:47:04.616Z,46.70
2023-04-16T11:48:03.617Z,46.89
2023-04-16T11:49:03.542Z,51.34
2023-04-16T11:50:03.542Z,58.51
2023-04-16T11:51:03.528Z,66.00
2023-04-16T11:52:03.499Z,48.91
2023-04-16T11:53:03.541Z,62.25
2023-04-16T11:54:03.550Z,72.12
2023-04-16T11:55:03.494Z,62.60
2023-04-16T11:56:03.504Z,60.09
2023-04-16T11:57:03.485Z,71.39
2023-04-16T11:58:03.502Z,67.70
2023-04-16T11:59:03.496Z,63.11
2023-04-16T12:00:04.985Z,64.67
2023-04-16T12:01:03.460Z,65.95
2023-04-16T12:02:03.537Z,67.91
2023-04-16T12:03:03.571Z,67.38
2023-04-16T12:04:03.614Z,67.27
2023-04-16T12:05:03.487Z,56.85
2023-04-16T12:06:03.412Z,67.04
2023-04-16T12:07:03.421Z,60.90
2023-04-16T12:08:03.450Z,56.70
2023-04-16T12:09:03.517Z,63.79
2023-04-16T12:10:03.425Z,61.32
2023-04-16T12:11:03.426Z,55.90
2023-04-16T12:12:03.459Z,55.17
2023-04-16T12:13:03.426Z,61.21
2023-04-16T12:14:03.466Z,62.53
2023-04-16T12:15:03.576Z,76.10
2023-04-16T12:16:03.447Z,65.16
2023-04-16T12:17:03.523Z,61.75
2023-04-16T12:18:03.478Z,72.15
2023-04-16T12:19:03.483Z,52.27
2023-04-16T12:20:03.462Z,49.74
2023-04-16T12:21:03.470Z,48.59
2023-04-16T12:22:03.469Z,63.95
2023-04-16T12:23:03.475Z,70.80
2023-04-16T12:24:03.477Z,75.21
2023-04-16T12:25:03.483Z,79.26
2023-04-16T12:26:03.478Z,68.14
2023-04-16T12:27:03.486Z,49.93
2023-04-16T12:28:03.467Z,61.55
2023-04-16T12:29:03.472Z,69.25
2023-04-16T12:30:03.447Z,63.62
2023-04-16T12:31:03.583Z,67.85
2023-04-16T12:32:03.474Z,74.21
2023-04-16T12:33:03.521Z,63.76
2023-04-16T12:34:03.470Z,67.90
2023-04-16T12:35:03.477Z,59.42
2023-04-16T12:36:03.483Z,65.52
2023-04-16T12:37:03.529Z,62.00
2023-04-16T12:38:03.553Z,58.25
2023-04-16T12:39:03.480Z,80.86
2023-04-16T12:40:03.475Z,90.88
2023-04-16T12:41:03.463Z,82.90
2023-04-16T12:42:03.473Z,76.62
2023-04-16T12:43:03.478Z,72.20
2023-04-16T12:44:03.548Z,77.09
2023-04-16T12:45:03.509Z,69.53
2023-04-16T12:46:04.460Z,77.49
2023-04-16T12:47:03.556Z,80.20
2023-04-16T12:48:03.529Z,85.79
2023-04-16T12:49:03.485Z,95.19
2023-04-16T12:50:03.515Z,91.57
2023-04-16T12:51:03.526Z,88.11
2023-04-16T12:52:03.494Z,88.38
2023-04-16T12:53:03.510Z,83.92